KPLR/PLR METAR and TAF weather

Enter ICAO airport designator
Station Type Date Time Source
KPLR METAR 2022/01/26 08:15 UTC NOAA

KPLR 260815Z AUTO 01007KT 10SM SCT018 BKN029 SCT035 00/M03 A3024 RMK A01


Station Type Date Time Source
KPLR Decoded METAR 2022/01/26 08:15 UTC NOAA

Station name not available
Jan 26, 2022 - 03:15 AM EST / 2022.01.26 0815 UTC
Wind: from the N (010 degrees) at 8 MPH (7 KT):0
Visibility: 10 mile(s):0
Sky conditions: mostly cloudy
Temperature: 32 F (0 C)
Windchill: 24 F (-4 C):1
Dew Point: 26 F (-3 C)
Relative Humidity: 80%
Pressure (altimeter): 30.24 in. Hg (1024 hPa)
ob: KPLR 260815Z AUTO 01007KT 10SM SCT018 BKN029 SCT035 00/M03 A3024 RMK A01
cycle: 8

Station Type Date Time Source
KPLR TAF UTC NOAA

Error!

Example: see airport list